createdAt,value
2018-11-29T00:00:27.712Z,1.94
2018-11-29T00:02:56.374Z,1.95
2018-11-29T00:05:25.501Z,1.95
2018-11-29T00:07:54.207Z,1.70
2018-11-29T00:10:22.800Z,1.96
2018-11-29T00:12:51.419Z,1.98
2018-11-29T00:15:19.994Z,2.00
2018-11-29T00:17:48.909Z,2.01
2018-11-29T00:20:19.174Z,1.98
2018-11-29T00:22:49.524Z,1.63
2018-11-29T00:25:18.846Z,1.97
2018-11-29T00:27:47.740Z,2.01
2018-11-29T00:30:19.348Z,2.00
2018-11-29T00:32:48.027Z,1.94
2018-11-29T00:35:17.239Z,2.03
2018-11-29T00:37:45.969Z,2.00
2018-11-29T00:40:19.430Z,2.08
2018-11-29T00:42:48.052Z,2.10
2018-11-29T00:45:18.739Z,2.10
2018-11-29T00:47:47.815Z,2.10
2018-11-29T00:50:17.562Z,2.13
2018-11-29T00:52:47.957Z,2.12
2018-11-29T00:55:20.603Z,1.71
2018-11-29T00:57:49.294Z,2.17
2018-11-29T01:00:21.765Z,2.08
2018-11-29T01:02:50.774Z,2.20
2018-11-29T01:05:19.374Z,2.22
2018-11-29T01:07:48.203Z,2.23
2018-11-29T01:10:17.520Z,2.22
2018-11-29T01:12:47.049Z,2.25
2018-11-29T01:15:18.571Z,2.26
2018-11-29T01:17:48.389Z,2.27
2018-11-29T01:20:18.030Z,2.29
2018-11-29T01:22:46.879Z,2.33
2018-11-29T01:25:16.054Z,2.33
2018-11-29T01:27:45.935Z,2.32
2018-11-29T01:30:16.534Z,2.34
2018-11-29T01:32:45.374Z,2.33
2018-11-29T01:35:15.130Z,2.37
2018-11-29T01:37:43.997Z,2.35
2018-11-29T01:40:17.081Z,2.34
2018-11-29T01:42:53.100Z,2.35
2018-11-29T01:45:21.709Z,2.33
2018-11-29T01:47:50.234Z,2.34
2018-11-29T01:50:19.008Z,2.33
2018-11-29T01:52:47.517Z,2.32
2018-11-29T01:55:16.518Z,1.95
2018-11-29T01:57:45.115Z,2.33
2018-11-29T02:00:15.389Z,2.34
2018-11-29T02:02:44.534Z,2.35
2018-11-29T02:05:13.483Z,2.35
2018-11-29T02:07:42.056Z,2.33
2018-11-29T02:10:18.012Z,2.34
2018-11-29T02:12:46.734Z,2.32
2018-11-29T02:15:15.375Z,2.32
2018-11-29T02:17:43.979Z,2.35
2018-11-29T02:20:19.125Z,2.39
2018-11-29T02:22:48.334Z,2.40
2018-11-29T02:25:16.877Z,2.39
2018-11-29T02:27:45.936Z,2.42
2018-11-29T02:30:22.250Z,2.42
2018-11-29T02:32:51.131Z,2.44
2018-11-29T02:35:20.021Z,2.47
2018-11-29T02:37:48.556Z,2.47
2018-11-29T02:40:18.317Z,2.46
2018-11-29T02:42:48.029Z,2.47
2018-11-29T02:45:19.003Z,2.49
2018-11-29T02:47:47.577Z,2.50
2018-11-29T02:50:16.415Z,2.49
2018-11-29T02:52:45.039Z,2.51
2018-11-29T02:55:13.802Z,2.50
2018-11-29T02:57:42.668Z,2.52
2018-11-29T03:00:14.456Z,2.53
2018-11-29T03:02:43.119Z,2.54
2018-11-29T03:05:11.821Z,2.55
2018-11-29T03:07:40.498Z,2.57
2018-11-29T03:10:11.173Z,2.57
2018-11-29T03:12:40.118Z,2.57
2018-11-29T03:15:11.419Z,2.59
2018-11-29T03:17:40.125Z,2.59
2018-11-29T03:20:10.319Z,2.59
2018-11-29T03:22:39.043Z,2.58
2018-11-29T03:25:10.625Z,2.61
2018-11-29T03:27:39.183Z,2.61
2018-11-29T03:30:10.332Z,2.62
2018-11-29T03:32:38.936Z,2.62
2018-11-29T03:35:08.219Z,2.63
2018-11-29T03:37:36.816Z,2.65
2018-11-29T03:40:07.918Z,2.62
2018-11-29T03:42:36.435Z,2.64
2018-11-29T03:45:05.922Z,2.65
2018-11-29T03:47:34.430Z,2.65
2018-11-29T03:50:03.046Z,2.66
2018-11-29T03:52:31.660Z,2.66
2018-11-29T03:55:00.165Z,2.67
2018-11-29T03:57:29.135Z,2.64
2018-11-29T03:59:57.678Z,2.67
2018-11-29T04:02:26.781Z,2.66
2018-11-29T04:04:55.312Z,2.62
2018-11-29T04:07:24.155Z,2.62
2018-11-29T04:09:52.823Z,2.63
2018-11-29T04:12:21.386Z,2.60
2018-11-29T04:14:50.064Z,2.59
2018-11-29T04:17:18.590Z,2.59
2018-11-29T04:19:47.842Z,2.58
2018-11-29T04:22:16.574Z,2.54
2018-11-29T04:24:45.742Z,2.61
2018-11-29T04:27:14.304Z,2.58
2018-11-29T04:29:46.071Z,2.53
2018-11-29T04:32:14.723Z,2.47
2018-11-29T04:34:43.843Z,2.43
2018-11-29T04:37:12.382Z,2.34
2018-11-29T04:39:41.243Z,2.28
2018-11-29T04:42:09.923Z,2.20
2018-11-29T04:44:38.575Z,2.14
2018-11-29T04:47:07.145Z,2.13
2018-11-29T04:49:35.667Z,2.11
2018-11-29T04:52:04.662Z,1.58
2018-11-29T04:54:33.182Z,2.07
2018-11-29T04:57:02.258Z,2.05
2018-11-29T04:59:30.808Z,2.03
2018-11-29T05:02:00.267Z,2.01
2018-11-29T05:04:28.846Z,1.99
2018-11-29T05:06:57.638Z,2.01
2018-11-29T05:09:26.173Z,2.01
2018-11-29T05:11:54.710Z,2.02
2018-11-29T05:14:23.630Z,2.00
2018-11-29T05:16:52.151Z,2.00
2018-11-29T05:19:21.038Z,2.01
2018-11-29T05:21:49.622Z,2.00
2018-11-29T05:24:18.209Z,2.00
2018-11-29T05:26:46.802Z,2.00
2018-11-29T05:29:15.322Z,1.99
2018-11-29T05:31:44.217Z,1.99
2018-11-29T05:34:12.835Z,1.95
2018-11-29T05:36:41.617Z,1.50
2018-11-29T05:39:10.182Z,1.93
2018-11-29T05:41:38.768Z,1.88
2018-11-29T05:44:07.389Z,1.87
2018-11-29T05:46:36.002Z,1.85
2018-11-29T05:49:04.746Z,1.85
2018-11-29T05:51:33.362Z,1.87
2018-11-29T05:54:02.967Z,1.84
2018-11-29T05:56:31.642Z,1.84
2018-11-29T05:59:01.072Z,1.81
2018-11-29T06:01:34.265Z,1.80
2018-11-29T06:04:03.331Z,1.74
2018-11-29T06:06:31.890Z,1.79
2018-11-29T06:09:00.898Z,1.09
2018-11-29T06:11:30.422Z,1.74
2018-11-29T06:13:59.450Z,1.73
2018-11-29T06:16:27.999Z,1.71
2018-11-29T06:18:56.967Z,1.71
2018-11-29T06:21:25.521Z,1.68
2018-11-29T06:23:54.201Z,1.67
2018-11-29T06:26:22.874Z,1.67
2018-11-29T06:28:51.431Z,1.66
2018-11-29T06:31:20.232Z,1.67
2018-11-29T06:33:48.846Z,1.61
2018-11-29T06:36:18.309Z,1.27
2018-11-29T06:38:47.085Z,1.61
2018-11-29T06:41:15.972Z,0.95
2018-11-29T06:43:44.610Z,1.60
2018-11-29T06:46:13.577Z,1.61
2018-11-29T06:48:42.786Z,1.60
2018-11-29T06:51:11.405Z,1.60
2018-11-29T06:53:45.314Z,1.61
2018-11-29T06:56:14.023Z,1.64
2018-11-29T06:58:42.640Z,1.63
2018-11-29T07:01:11.648Z,1.63
2018-11-29T07:03:40.238Z,1.63
2018-11-29T07:06:09.007Z,1.61
2018-11-29T07:08:37.534Z,1.61
2018-11-29T07:11:06.247Z,1.64
2018-11-29T07:13:34.786Z,1.59
2018-11-29T07:16:03.382Z,1.63
2018-11-29T07:18:32.223Z,1.63
2018-11-29T07:21:11.807Z,1.66
2018-11-29T07:23:40.498Z,1.65
2018-11-29T07:26:09.125Z,1.68
2018-11-29T07:28:37.694Z,1.68
2018-11-29T07:31:06.770Z,1.71
2018-11-29T07:33:35.296Z,1.71
2018-11-29T07:36:05.250Z,1.74
2018-11-29T07:38:36.669Z,1.73
2018-11-29T07:41:09.051Z,1.74
2018-11-29T07:43:40.202Z,1.73
2018-11-29T07:46:12.336Z,1.74
2018-11-29T07:48:41.016Z,1.76
2018-11-29T07:51:11.062Z,1.78
2018-11-29T07:53:41.912Z,1.71
2018-11-29T07:56:14.800Z,1.80
2018-11-29T07:58:51.433Z,1.80
2018-11-29T08:01:15.651Z,1.81
2018-11-29T08:03:44.456Z,1.84
2018-11-29T08:06:15.119Z,1.85
2018-11-29T08:08:45.060Z,1.88
2018-11-29T08:11:18.163Z,1.88
2018-11-29T08:13:50.799Z,1.91
2018-11-29T08:16:20.134Z,1.92
2018-11-29T08:18:49.143Z,1.95
2018-11-29T08:21:18.032Z,1.95
2018-11-29T08:23:47.463Z,1.96
2018-11-29T08:26:16.471Z,1.98
2018-11-29T08:28:45.076Z,1.98
2018-11-29T08:31:13.674Z,1.99
2018-11-29T08:33:42.614Z,1.54
2018-11-29T08:36:11.145Z,2.04
2018-11-29T08:38:40.333Z,2.03
2018-11-29T08:41:08.855Z,2.07
2018-11-29T08:43:37.790Z,2.07
2018-11-29T08:46:06.411Z,2.08
2018-11-29T08:48:35.314Z,2.10
2018-11-29T08:51:03.880Z,2.10
2018-11-29T08:53:32.681Z,2.05
2018-11-29T08:56:01.303Z,2.14
2018-11-29T08:58:29.924Z,2.13
2018-11-29T09:00:58.752Z,1.73
2018-11-29T09:03:27.312Z,2.15
2018-11-29T09:05:56.358Z,2.17
2018-11-29T09:08:24.969Z,2.17
2018-11-29T09:10:53.675Z,2.16
2018-11-29T09:13:22.222Z,2.21
2018-11-29T09:15:50.861Z,2.21
2018-11-29T09:18:19.730Z,1.87
2018-11-29T09:20:48.387Z,2.24
2018-11-29T09:23:17.234Z,2.26
2018-11-29T09:25:45.898Z,2.27
2018-11-29T09:28:14.847Z,2.25
2018-11-29T09:30:43.463Z,2.26
2018-11-29T09:33:12.183Z,2.28
2018-11-29T09:35:40.754Z,2.01
2018-11-29T09:38:09.383Z,2.29
2018-11-29T09:40:38.132Z,2.29
2018-11-29T09:43:07.055Z,2.28
2018-11-29T09:45:36.303Z,2.30
2018-11-29T09:48:04.949Z,2.28
2018-11-29T09:50:33.622Z,2.32
2018-11-29T09:53:02.255Z,2.31
2018-11-29T09:55:30.857Z,2.32
2018-11-29T09:57:59.480Z,2.34
2018-11-29T10:00:29.211Z,2.31
2018-11-29T10:03:03.566Z,2.26
2018-11-29T10:05:32.763Z,2.34
2018-11-29T10:08:01.367Z,2.33
2018-11-29T10:10:30.498Z,2.36
2018-11-29T10:12:59.188Z,2.37
2018-11-29T10:15:27.917Z,2.38
2018-11-29T10:17:56.640Z,2.37
2018-11-29T10:20:25.270Z,2.39
2018-11-29T10:22:53.932Z,2.28
2018-11-29T10:25:22.552Z,2.39
2018-11-29T10:28:08.861Z,2.41
2018-11-29T10:30:43.369Z,2.38
2018-11-29T10:33:11.950Z,2.39
2018-11-29T10:35:40.694Z,2.03
2018-11-29T10:38:09.293Z,2.42
2018-11-29T10:40:38.515Z,2.10
2018-11-29T10:43:07.252Z,2.42
2018-11-29T10:45:36.400Z,2.02
2018-11-29T10:48:05.676Z,2.43
2018-11-29T10:50:34.388Z,2.45
2018-11-29T10:53:03.875Z,2.43
2018-11-29T10:55:32.660Z,2.42
2018-11-29T10:58:01.313Z,2.44
2018-11-29T11:00:39.023Z,2.44
2018-11-29T11:03:13.380Z,2.41
2018-11-29T11:05:41.984Z,2.41
2018-11-29T11:08:10.800Z,2.37
2018-11-29T11:10:40.384Z,2.44
2018-11-29T11:13:09.392Z,2.45
2018-11-29T11:15:38.805Z,2.43
2018-11-29T11:18:08.923Z,2.43
2018-11-29T11:20:37.544Z,2.42
2018-11-29T11:23:06.471Z,2.42
2018-11-29T11:25:35.027Z,2.42
2018-11-29T11:28:04.511Z,2.40
2018-11-29T11:30:33.170Z,2.43
2018-11-29T11:33:01.856Z,2.44
2018-11-29T11:35:31.043Z,2.44
2018-11-29T11:37:59.688Z,2.41
2018-11-29T11:40:28.250Z,2.41
2018-11-29T11:42:56.859Z,2.43
2018-11-29T11:45:25.746Z,1.71
2018-11-29T11:47:54.366Z,2.43
2018-11-29T11:50:24.183Z,2.44
2018-11-29T11:52:53.724Z,2.42
2018-11-29T11:55:29.685Z,2.41
2018-11-29T11:57:51.354Z,2.39
2018-11-29T12:00:21.982Z,2.40
2018-11-29T12:02:52.075Z,2.39
2018-11-29T12:05:21.276Z,2.40
2018-11-29T12:07:49.848Z,2.36
2018-11-29T12:10:18.755Z,2.38
2018-11-29T12:12:47.363Z,2.38
2018-11-29T12:15:16.345Z,2.38
2018-11-29T12:17:46.003Z,2.31
2018-11-29T12:20:16.529Z,2.34
2018-11-29T12:22:45.136Z,2.32
2018-11-29T12:25:15.914Z,2.33
2018-11-29T12:27:44.510Z,2.32
2018-11-29T12:30:15.919Z,2.33
2018-11-29T12:32:44.500Z,2.36
2018-11-29T12:35:16.013Z,2.34
2018-11-29T12:37:44.654Z,2.33
2018-11-29T12:40:15.635Z,2.34
2018-11-29T12:42:44.202Z,2.34
2018-11-29T12:45:14.082Z,1.92
2018-11-29T12:47:43.171Z,2.33
2018-11-29T12:50:20.098Z,1.58
2018-11-29T12:52:49.003Z,1.96
2018-11-29T12:55:18.656Z,2.37
2018-11-29T12:57:47.665Z,2.38
2018-11-29T13:00:18.443Z,2.38
2018-11-29T13:02:51.264Z,2.40
2018-11-29T13:05:20.048Z,2.38
2018-11-29T13:07:48.718Z,2.38
2018-11-29T13:10:19.867Z,2.39
2018-11-29T13:12:48.546Z,2.35
2018-11-29T13:15:18.753Z,2.34
2018-11-29T13:17:47.454Z,2.36
2018-11-29T13:20:17.149Z,2.36
2018-11-29T13:22:45.715Z,2.34
2018-11-29T13:25:17.351Z,2.35
2018-11-29T13:27:46.148Z,2.36
2018-11-29T13:30:16.854Z,2.31
2018-11-29T13:32:45.721Z,2.34
2018-11-29T13:35:17.770Z,2.34
2018-11-29T13:37:48.951Z,2.35
2018-11-29T13:42:46.208Z,2.35
2018-11-29T13:45:15.130Z,2.34
2018-11-29T13:47:43.738Z,2.34
2018-11-29T13:50:13.916Z,1.95
2018-11-29T13:52:42.495Z,2.33
2018-11-29T13:55:12.678Z,2.33
2018-11-29T13:57:41.957Z,2.32
2018-11-29T14:00:15.957Z,1.99
2018-11-29T14:02:47.049Z,2.30
2018-11-29T14:05:14.243Z,2.30
2018-11-29T14:07:43.080Z,2.29
2018-11-29T14:10:16.279Z,2.26
2018-11-29T14:12:45.817Z,2.28
2018-11-29T14:15:17.678Z,2.30
2018-11-29T14:17:46.338Z,2.19
2018-11-29T14:20:15.238Z,2.28
2018-11-29T14:22:44.305Z,1.47
2018-11-29T14:25:14.137Z,2.24
2018-11-29T14:27:45.055Z,2.24
2018-11-29T14:30:22.483Z,2.23
2018-11-29T14:32:51.319Z,2.21
2018-11-29T14:35:19.953Z,2.23
2018-11-29T14:37:48.540Z,2.03
2018-11-29T14:40:19.872Z,2.23
2018-11-29T14:42:48.583Z,2.25
2018-11-29T14:45:18.311Z,2.27
2018-11-29T14:47:47.012Z,2.26
2018-11-29T14:50:48.430Z,1.94
2018-11-29T14:53:17.524Z,2.25
2018-11-29T14:55:46.188Z,2.23
2018-11-29T14:58:19.593Z,1.58
2018-11-29T15:00:43.847Z,2.24
2018-11-29T15:03:14.330Z,2.21
2018-11-29T15:05:43.180Z,2.24
2018-11-29T15:08:11.981Z,2.21
2018-11-29T15:10:40.531Z,2.22
2018-11-29T15:13:10.816Z,2.26
2018-11-29T15:15:40.099Z,2.28
2018-11-29T15:18:09.507Z,2.26
2018-11-29T15:20:46.357Z,2.25
2018-11-29T15:23:16.250Z,2.30
2018-11-29T15:25:45.332Z,2.30
2018-11-29T15:28:14.119Z,2.22
2018-11-29T15:30:42.871Z,2.31
2018-11-29T15:33:11.498Z,2.32
2018-11-29T15:35:40.189Z,2.32
2018-11-29T15:38:09.038Z,1.92
2018-11-29T15:40:37.648Z,2.35
2018-11-29T15:43:06.675Z,1.66
2018-11-29T15:45:35.932Z,2.37
2018-11-29T15:48:04.780Z,1.99
2018-11-29T15:50:33.385Z,2.40
2018-11-29T15:53:02.322Z,2.40
2018-11-29T15:55:31.036Z,2.42
2018-11-29T15:57:59.739Z,2.42
2018-11-29T16:00:29.683Z,2.41
2018-11-29T16:03:00.504Z,2.42
2018-11-29T16:05:30.007Z,2.44
2018-11-29T16:07:59.345Z,2.44
2018-11-29T16:10:28.588Z,2.42
2018-11-29T16:12:57.396Z,2.44
2018-11-29T16:15:26.218Z,2.46
2018-11-29T16:17:54.993Z,2.45
2018-11-29T16:20:26.832Z,2.44
2018-11-29T16:22:55.801Z,2.47
2018-11-29T16:25:24.710Z,2.48
2018-11-29T16:27:53.510Z,2.48
2018-11-29T16:30:26.756Z,2.29
2018-11-29T16:32:56.649Z,2.13
2018-11-29T16:35:25.663Z,2.52
2018-11-29T16:37:54.843Z,1.94
2018-11-29T16:40:23.557Z,2.53
2018-11-29T16:42:52.560Z,2.51
2018-11-29T16:45:21.150Z,2.54
2018-11-29T16:47:49.802Z,2.55
2018-11-29T16:50:18.515Z,2.56
2018-11-29T16:52:47.814Z,2.56
2018-11-29T16:55:16.608Z,2.31
2018-11-29T16:57:48.492Z,2.58
2018-11-29T17:00:19.622Z,2.57
2018-11-29T17:02:48.456Z,2.57
2018-11-29T17:05:17.141Z,2.59
2018-11-29T17:07:45.780Z,2.60
2018-11-29T17:10:16.799Z,2.61
2018-11-29T17:12:48.752Z,2.59
2018-11-29T17:15:18.342Z,2.62
2018-11-29T17:17:47.318Z,2.62
2018-11-29T17:20:17.985Z,2.62
2018-11-29T17:22:46.883Z,2.67
2018-11-29T17:25:15.487Z,2.67
2018-11-29T17:27:44.545Z,2.67
2018-11-29T17:30:22.790Z,2.69
2018-11-29T17:32:54.598Z,2.71
2018-11-29T17:35:23.206Z,2.70
2018-11-29T17:37:52.298Z,2.72
2018-11-29T17:40:21.745Z,2.69
2018-11-29T17:42:51.144Z,2.75
2018-11-29T17:45:26.725Z,2.76
2018-11-29T17:47:59.431Z,2.79
2018-11-29T17:50:33.086Z,2.80
2018-11-29T17:53:01.830Z,2.82
2018-11-29T17:55:30.786Z,2.49
2018-11-29T17:57:59.469Z,2.84
2018-11-29T18:00:29.708Z,2.88
2018-11-29T18:02:58.382Z,2.89
2018-11-29T18:05:27.371Z,2.91
2018-11-29T18:07:55.958Z,2.92
2018-11-29T18:10:29.051Z,2.95
2018-11-29T18:13:03.353Z,2.97
2018-11-29T18:15:33.736Z,2.98
2018-11-29T18:18:02.671Z,3.00
2018-11-29T18:20:31.270Z,3.02
2018-11-29T18:23:00.307Z,3.02
2018-11-29T18:25:28.890Z,3.05
2018-11-29T18:27:57.911Z,3.06
2018-11-29T18:30:26.557Z,3.08
2018-11-29T18:32:55.679Z,3.10
2018-11-29T18:35:24.388Z,3.12
2018-11-29T18:37:53.045Z,3.13
2018-11-29T18:40:22.462Z,2.97
2018-11-29T18:42:55.541Z,3.12
2018-11-29T18:45:24.202Z,3.14
2018-11-29T18:47:53.789Z,3.15
2018-11-29T18:50:23.560Z,3.16
2018-11-29T18:52:52.734Z,3.16
2018-11-29T18:55:23.314Z,3.16
2018-11-29T18:57:52.757Z,3.18
2018-11-29T19:00:24.656Z,3.17
2018-11-29T19:02:56.928Z,2.86
2018-11-29T19:05:22.447Z,3.20
2018-11-29T19:07:51.721Z,3.19
2018-11-29T19:10:20.823Z,3.22
2018-11-29T19:12:53.927Z,3.22
2018-11-29T19:15:22.849Z,3.23
2018-11-29T19:17:51.463Z,3.25
2018-11-29T19:20:20.750Z,3.27
2018-11-29T19:22:50.442Z,3.20
2018-11-29T19:25:20.103Z,3.33
2018-11-29T19:27:48.878Z,2.58
2018-11-29T19:30:22.899Z,3.37
2018-11-29T19:33:10.713Z,3.38
2018-11-29T19:35:39.369Z,3.39
2018-11-29T19:38:08.478Z,3.41
2018-11-29T19:40:37.280Z,3.43
2018-11-29T19:43:07.212Z,3.43
2018-11-29T19:45:36.338Z,3.42
2018-11-29T19:48:05.495Z,3.43
2018-11-29T19:50:34.198Z,3.43
2018-11-29T19:53:03.484Z,3.46
2018-11-29T19:55:33.304Z,3.46
2018-11-29T19:58:02.262Z,3.46
2018-11-29T20:00:31.585Z,3.47
2018-11-29T20:03:00.532Z,3.47
2018-11-29T20:05:29.782Z,3.48
2018-11-29T20:07:58.825Z,3.49
2018-11-29T20:10:28.966Z,3.49
2018-11-29T20:13:03.504Z,3.50
2018-11-29T20:15:32.506Z,3.49
2018-11-29T20:18:01.818Z,3.51
2018-11-29T20:20:30.845Z,3.50
2018-11-29T20:23:00.066Z,3.51
2018-11-29T20:25:29.211Z,3.52
2018-11-29T20:27:57.998Z,3.52
2018-11-29T20:30:27.365Z,3.54
2018-11-29T20:32:56.262Z,3.53
2018-11-29T20:35:26.714Z,3.54
2018-11-29T20:37:55.887Z,3.54
2018-11-29T20:40:26.558Z,3.41
2018-11-29T20:42:59.897Z,3.53
2018-11-29T20:45:32.377Z,3.54
2018-11-29T20:48:01.566Z,3.54
2018-11-29T20:50:30.742Z,3.54
2018-11-29T20:53:00.207Z,3.57
2018-11-29T20:55:30.342Z,3.57
2018-11-29T20:57:59.417Z,3.58
2018-11-29T21:00:28.188Z,3.57
2018-11-29T21:02:56.920Z,3.57
2018-11-29T21:05:26.044Z,3.57
2018-11-29T21:07:59.539Z,3.24
2018-11-29T21:10:29.333Z,3.58
2018-11-29T21:13:02.281Z,3.56
2018-11-29T21:15:30.915Z,3.57
2018-11-29T21:17:59.554Z,3.57
2018-11-29T21:20:29.281Z,3.56
2018-11-29T21:22:57.951Z,3.56
2018-11-29T21:25:27.565Z,3.20
2018-11-29T21:27:56.215Z,3.59
2018-11-29T21:30:25.282Z,3.59
2018-11-29T21:32:54.142Z,3.57
2018-11-29T21:35:24.036Z,3.58
2018-11-29T21:37:53.435Z,3.59
2018-11-29T21:40:25.974Z,3.59
2018-11-29T21:42:54.553Z,3.58
2018-11-29T21:45:25.468Z,3.61
2018-11-29T21:47:54.241Z,3.59
2018-11-29T21:50:24.204Z,3.58
2018-11-29T21:52:53.096Z,3.57
2018-11-29T21:55:21.806Z,3.57
2018-11-29T21:57:50.362Z,3.56
2018-11-29T22:00:21.551Z,3.54
2018-11-29T22:02:54.754Z,3.54
2018-11-29T22:05:23.343Z,3.57
2018-11-29T22:07:52.418Z,3.56
2018-11-29T22:10:21.989Z,3.56
2018-11-29T22:12:51.213Z,3.57
2018-11-29T22:15:19.792Z,3.58
2018-11-29T22:18:24.626Z,3.57
2018-11-29T22:20:59.478Z,3.59
2018-11-29T22:23:28.427Z,2.86
2018-11-29T22:25:58.325Z,3.58
2018-11-29T22:28:27.218Z,3.57
2018-11-29T22:30:56.237Z,3.58
2018-11-29T22:33:25.063Z,3.59
2018-11-29T22:35:53.607Z,3.60
2018-11-29T22:38:22.288Z,3.61
2018-11-29T22:40:51.018Z,3.60
2018-11-29T22:43:19.584Z,3.59
2018-11-29T22:45:49.033Z,3.20
2018-11-29T22:48:17.603Z,3.58
2018-11-29T22:50:46.255Z,3.61
2018-11-29T22:53:14.808Z,3.60
2018-11-29T22:55:43.458Z,3.62
2018-11-29T22:58:11.966Z,3.60
2018-11-29T23:00:45.758Z,3.58
2018-11-29T23:03:14.373Z,3.58
2018-11-29T23:05:43.498Z,3.56
2018-11-29T23:08:12.050Z,3.60
2018-11-29T23:10:40.660Z,3.59
2018-11-29T23:13:09.319Z,3.57
2018-11-29T23:15:37.875Z,3.55
2018-11-29T23:18:07.466Z,3.56
2018-11-29T23:20:35.988Z,3.55
2018-11-29T23:23:05.250Z,3.52
2018-11-29T23:25:33.906Z,3.56
2018-11-29T23:28:02.698Z,3.58
2018-11-29T23:30:31.346Z,3.57
2018-11-29T23:33:00.260Z,3.60
2018-11-29T23:35:28.920Z,3.60
2018-11-29T23:37:57.480Z,3.58
2018-11-29T23:40:26.370Z,3.53
2018-11-29T23:42:54.886Z,3.62
2018-11-29T23:45:23.888Z,3.30
2018-11-29T23:47:52.440Z,3.60
2018-11-29T23:50:21.581Z,3.61
2018-11-29T23:52:50.167Z,3.64
2018-11-29T23:55:20.358Z,3.63
2018-11-29T23:57:48.938Z,3.64
